KMIC/MIC METAR and TAF weather

Enter ICAO airport designator
Station Type Date Time Source
KMIC METAR 2020/02/26 09:53 UTC NOAA

KMIC 260953Z AUTO 34009KT 10SM OVC038 M06/M11 A3031 RMK AO2 SLP277 T10611111


Station Type Date Time Source
KMIC Decoded METAR 2020/02/26 09:53 UTC NOAA

CRYSTAL AIRPORT, MN, United States (KMIC) 45-04N 093-21W 265M
Feb 26, 2020 - 04:53 AM EST / 2020.02.26 0953 UTC
Wind: from the NNW (340 degrees) at 10 MPH (9 KT):0
Visibility: 10 mile(s):0
Sky conditions: overcast
Temperature: 21.0 F (-6.1 C)
Windchill: 10 F (-12 C):1
Dew Point: 12.0 F (-11.1 C)
Relative Humidity: 67%
Pressure (altimeter): 30.31 in. Hg (1026 hPa)
ob: KMIC 260953Z AUTO 34009KT 10SM OVC038 M06/M11 A3031 RMK AO2 SLP277 T10611111
cycle: 10

Station Type Date Time Source
KMIC TAF UTC NOAA

Error!

Example: see airport list